Weather History for Jacksonville, IL

Change the Weather History Date:

Thursday, January 30, 2014

  Actual Average (KSPI) Record (KSPI)
Temperature  
Mean Temperature 32 °F 27 °F  
Max Temperature 41 °F 36 °F 62 °F (1884)
Min Temperature 23 °F 19 °F -14 °F (2004)
Degree Days  
Heating Degree Days 33 38  
Month to date heating degree days 1147  
Since 1 July heating degree days 3287  
Cooling Degree Days 0 0  
Month to date cooling degree days 0  
Year to date cooling degree days 0  
Moisture  
Dew Point 14 °F    
Average Humidity 49    
Maximum Humidity 75    
Minimum Humidity 28    
Precipitation  
Precipitation 0.00 in 0.05 in 1.00 in (2002)
Month to date precipitation 1.76  
Year to date precipitation 1.76  
Snow  
Snow 0.00 in 0.20 in 5.60 in (1914)
Month to date snowfall 6.2  
Since 1 July snowfall 12.4  
Snow Depth -    
Sea Level Pressure  
Sea Level Pressure 29.88 in    
Wind  
Wind Speed 15 mph (SSW)    
Max Wind Speed 25 mph    
Max Gust Speed 34 mph    
Visibility 10 miles    
Events Snow    
T = Trace of Precipitation, MM = Missing Value Source: NWS Daily Summary

Daily Weather History Graph

Daily Weather History Graph

Search for Another Location

Airport:

Trip Planner

Search our weather history database for the weather conditions in past years. The results will help you decide how hot, cold, wet, or windy it might be!

Date:

Astronomy

Jan. 30, 2014 Rise Set
Actual Time 7:10 AM CST 5:18 PM CST
Civil Twilight 6:42 AM CST 5:46 PM CST
Nautical Twilight 6:09 AM CST 6:19 PM CST
Astronomical Twilight 5:37 AM CST 6:51 PM CST
Moon 6:36 AM CST (1/30) 5:30 PM CST (1/30)
Length of Visible Light 11h 04m
Length of Day
10h 07m
Waning Crescent, 0% of the Moon is Illuminated
Jan 30
Waning Crescent
Jan 30
New
Feb 6
First Quarter
Feb 14
Full
Feb 22
Last Quarter

Hourly Weather History & Observations

Time (CST) Temp. Windchill Dew Point Humidity Pressure Visibility Wind Dir Wind Speed Gust Speed Precip Events Conditions
12:15 AM 24.6 °F 11.7 °F 6.4 °F 46% 30.03 in 10.0 mi South 16.1 mph - N/A   Clear
12:35 AM 24.6 °F 12.2 °F 6.4 °F 46% 30.02 in 10.0 mi South 15.0 mph 19.6 mph N/A   Clear
12:55 AM 24.8 °F 13.4 °F 6.6 °F 46% 30.02 in 10.0 mi South 12.7 mph - N/A   Clear
1:15 AM 24.4 °F 11.9 °F 7.2 °F 48% 30.02 in 10.0 mi South 15.0 mph - N/A   Clear
1:35 AM 24.3 °F 11.2 °F 7.7 °F 49% 30.00 in 10.0 mi South 16.1 mph - N/A   Clear
1:55 AM 24.4 °F 11.9 °F 8.1 °F 50% 29.99 in 10.0 mi South 15.0 mph 23.0 mph N/A   Clear
2:15 AM 24.4 °F 12.4 °F 8.4 °F 51% 29.99 in 10.0 mi South 13.8 mph 21.9 mph N/A   Clear
2:35 AM 23.9 °F 12.3 °F 8.6 °F 52% 29.99 in 10.0 mi South 12.7 mph - N/A   Clear
2:55 AM 23.9 °F 11.7 °F 9.1 °F 53% 29.99 in 10.0 mi South 13.8 mph 18.4 mph N/A   Clear
3:15 AM 23.9 °F 11.2 °F 9.5 °F 54% 29.97 in 10.0 mi South 15.0 mph 19.6 mph N/A   Clear
3:35 AM 23.9 °F 11.2 °F 9.5 °F 54% 29.97 in 10.0 mi South 15.0 mph 19.6 mph N/A   Clear
3:55 AM 24.4 °F 11.9 °F 9.5 °F 53% 29.97 in 10.0 mi South 15.0 mph 21.9 mph N/A   Clear
4:15 AM 24.8 °F 11.9 °F 9.5 °F 52% 29.97 in 10.0 mi South 16.1 mph 23.0 mph N/A   Clear
4:35 AM 24.6 °F 10.9 °F 9.7 °F 53% 29.94 in 10.0 mi South 18.4 mph 25.3 mph N/A   Clear
4:55 AM 24.8 °F 11.1 °F 9.7 °F 53% 29.93 in 10.0 mi South 18.4 mph 25.3 mph N/A   Clear
5:15 AM 24.8 °F 11.1 °F 10.0 °F 54% 29.93 in 10.0 mi South 18.4 mph 26.5 mph N/A   Clear
5:35 AM 24.6 °F 11.7 °F 10.2 °F 54% 29.93 in 10.0 mi South 16.1 mph 21.9 mph N/A   Clear
5:55 AM 25.2 °F 12.0 °F 10.4 °F 54% 29.93 in 10.0 mi South 17.3 mph 24.2 mph N/A   Clear
6:15 AM 25.5 °F 12.0 °F 10.4 °F 53% 29.92 in 10.0 mi South 18.4 mph 24.2 mph N/A   Clear
6:35 AM 25.7 °F 12.3 °F 10.4 °F 52% 29.88 in 10.0 mi South 18.4 mph 24.2 mph N/A   Clear
6:55 AM 25.7 °F 11.9 °F 10.4 °F 52% 29.88 in 10.0 mi South 19.6 mph 32.2 mph N/A   Clear
7:15 AM 26.2 °F 12.6 °F 10.4 °F 51% 29.88 in 10.0 mi South 19.6 mph 25.3 mph N/A   Clear
7:35 AM 26.2 °F 13.8 °F 10.6 °F 52% 29.89 in 10.0 mi South 16.1 mph 23.0 mph N/A   Clear
7:55 AM 26.6 °F 14.3 °F 10.9 °F 52% 29.88 in 10.0 mi South 16.1 mph 25.3 mph N/A   Clear
8:15 AM 27.0 °F 13.9 °F 10.9 °F 51% 29.87 in 10.0 mi South 18.4 mph 26.5 mph N/A   Clear
8:35 AM 27.5 °F 14.6 °F 11.1 °F 50% 29.85 in 10.0 mi South 18.4 mph 27.6 mph N/A   Clear
8:55 AM 28.0 °F 14.9 °F 11.1 °F 49% 29.83 in 10.0 mi South 19.6 mph 27.6 mph N/A   Clear
9:15 AM 29.3 °F 17.3 °F 11.3 °F 47% 29.83 in 10.0 mi South 17.3 mph 26.5 mph N/A   Clear
9:35 AM 30.0 °F 17.9 °F 10.9 °F 45% 29.83 in 10.0 mi South 18.4 mph 25.3 mph N/A   Clear
9:55 AM 31.6 °F 18.1 °F 10.6 °F 42% 29.81 in 10.0 mi South 25.3 mph 32.2 mph N/A   Clear
10:15 AM 32.5 °F 19.9 °F 9.5 °F 38% 29.81 in 10.0 mi South 23.0 mph 31.1 mph N/A   Clear
10:35 AM 33.4 °F 22.0 °F 9.1 °F 36% 29.80 in 10.0 mi South 19.6 mph 32.2 mph N/A   Clear
10:55 AM 34.2 °F 23.3 °F 9.1 °F 35% 29.78 in 10.0 mi South 18.4 mph 28.8 mph N/A   Clear
11:15 AM 35.1 °F 23.3 °F 8.8 °F 34% 29.77 in 10.0 mi South 23.0 mph 34.5 mph N/A   Clear
11:35 AM 36.0 °F 25.0 °F 9.0 °F 33% 29.75 in 10.0 mi South 20.7 mph 31.1 mph N/A   Clear
11:55 AM 36.5 °F 26.0 °F 9.3 °F 32% 29.75 in 10.0 mi South 19.6 mph 26.5 mph N/A   Clear
12:15 PM 37.0 °F 27.0 °F 9.1 °F 32% 29.75 in 10.0 mi SSW 18.4 mph 27.6 mph N/A   Clear
12:35 PM 38.3 °F 28.4 °F 8.6 °F 29% 29.74 in 10.0 mi SSW 19.6 mph 28.8 mph N/A   Clear
12:55 PM 39.2 °F 30.8 °F 9.1 °F 29% 29.74 in 10.0 mi SSW 15.0 mph 26.5 mph N/A   Clear
1:15 PM 40.1 °F 30.5 °F 9.1 °F 28% 29.74 in 10.0 mi SSW 20.7 mph 26.5 mph N/A   Clear
1:35 PM 40.1 °F 32.0 °F 9.1 °F 28% 29.75 in 10.0 mi SSW 15.0 mph 25.3 mph N/A   Clear
1:55 PM 40.3 °F 32.6 °F 10.0 °F 29% 29.76 in 10.0 mi SW 13.8 mph 19.6 mph N/A   Scattered Clouds
2:15 PM 40.1 °F 33.2 °F 10.4 °F 30% 29.77 in 10.0 mi SW 11.5 mph - N/A   Mostly Cloudy
2:35 PM 39.6 °F 34.7 °F 11.3 °F 31% 29.78 in 10.0 mi WSW 6.9 mph - N/A   Mostly Cloudy
2:55 PM 40.1 °F 31.0 °F 13.8 °F 34% 29.79 in 7.0 mi SW 18.4 mph 31.1 mph N/A   Mostly Cloudy
3:15 PM 37.6 °F 28.1 °F 23.2 °F 56% 29.80 in 5.0 mi WSW 17.3 mph 28.8 mph N/A Snow Light Snow
3:35 PM 38.3 °F 28.7 °F 21.9 °F 52% 29.81 in 7.0 mi SW 18.4 mph 26.5 mph N/A   Mostly Cloudy
3:55 PM 37.9 °F 27.6 °F 23.5 °F 56% 29.82 in 10.0 mi WSW 20.7 mph 26.5 mph N/A   Mostly Cloudy
4:15 PM 38.3 °F 30.1 °F 23.0 °F 54% 29.83 in 10.0 mi West 13.8 mph 23.0 mph N/A   Scattered Clouds
4:35 PM 38.3 °F 31.4 °F 22.6 °F 53% 29.83 in 10.0 mi West 10.4 mph - N/A   Overcast
4:55 PM 38.5 °F 32.1 °F 22.1 °F 52% 29.83 in 10.0 mi WSW 9.2 mph - N/A   Overcast
5:15 PM 38.3 °F 32.5 °F 22.1 °F 52% 29.84 in 10.0 mi SW 8.1 mph - N/A   Overcast
5:35 PM 37.9 °F 32.1 °F 22.1 °F 53% 29.84 in 10.0 mi SW 8.1 mph - N/A   Overcast
5:55 PM 38.3 °F 33.2 °F 22.5 °F 53% 29.85 in 10.0 mi WSW 6.9 mph - N/A   Overcast
6:15 PM 38.5 °F 33.4 °F 23.0 °F 54% 29.86 in 10.0 mi WSW 6.9 mph - N/A   Overcast
6:35 PM 40.1 °F 33.6 °F 22.8 °F 50% 29.87 in 10.0 mi WSW 10.4 mph - N/A   Overcast
6:55 PM 41.0 °F 33.9 °F 22.1 °F 47% 29.87 in 10.0 mi WSW 12.7 mph 18.4 mph N/A   Overcast
7:15 PM 38.1 °F 32.9 °F 23.9 °F 57% 29.88 in 10.0 mi SW 6.9 mph - N/A   Overcast
7:35 PM 40.8 °F 33.7 °F 21.0 °F 45% 29.88 in 10.0 mi WSW 12.7 mph - N/A   Overcast
7:55 PM 41.0 °F 34.3 °F 20.5 °F 44% 29.88 in 10.0 mi West 11.5 mph - N/A   Overcast
8:15 PM 40.5 °F 33.2 °F 20.3 °F 45% 29.89 in 10.0 mi West 12.7 mph - N/A   Overcast
8:35 PM 40.1 °F 33.6 °F 20.1 °F 45% 29.90 in 10.0 mi West 10.4 mph - N/A   Overcast
8:55 PM 39.6 °F 33.0 °F 19.8 °F 45% 29.91 in 10.0 mi West 10.4 mph - N/A   Overcast
9:15 PM 35.1 °F 27.4 °F 21.6 °F 58% 29.93 in 10.0 mi WNW 10.4 mph - N/A   Overcast
9:35 PM 33.6 °F 25.6 °F 24.8 °F 70% 29.94 in 10.0 mi NW 10.4 mph - N/A   Overcast
9:55 PM 32.0 °F 24.2 °F 24.8 °F 75% 29.95 in 10.0 mi NW 9.2 mph - N/A   Overcast
10:15 PM 31.1 °F 23.1 °F 23.9 °F 75% 29.96 in 10.0 mi NW 9.2 mph - N/A   Overcast
10:35 PM 31.1 °F 23.7 °F 23.9 °F 75% 29.98 in 10.0 mi WNW 8.1 mph - N/A   Overcast
10:55 PM 30.4 °F 20.5 °F 22.6 °F 73% 29.98 in 10.0 mi NNW 12.7 mph 17.3 mph N/A   Overcast
11:15 PM 29.7 °F 21.3 °F 21.2 °F 71% 29.98 in 10.0 mi NNW 9.2 mph - N/A   Overcast
11:35 PM 29.1 °F 20.0 °F 20.7 °F 71% 29.99 in 10.0 mi NNW 10.4 mph - N/A   Overcast
11:55 PM 28.4 °F 19.7 °F 20.3 °F 72% 30.01 in 10.0 mi NNW 9.2 mph - N/A   Mostly Cloudy